sensor_id;sensor_type;location;lat;lon;timestamp;pressure;altitude;pressure_sealevel;temperature;humidity
71643;BME280;59438;45.014;39.006;2022-12-07T00:00:14;102069.09;;;-0.13;64.29
71643;BME280;59438;45.014;39.006;2022-12-07T00:02:40;102076.09;;;-0.09;64.21
71643;BME280;59438;45.014;39.006;2022-12-07T00:05:07;102069.19;;;-0.10;63.97
71643;BME280;59438;45.014;39.006;2022-12-07T00:07:33;102060.72;;;-0.06;63.78
71643;BME280;59438;45.014;39.006;2022-12-07T00:10:00;102064.09;;;-0.07;64.04
71643;BME280;59438;45.014;39.006;2022-12-07T00:12:28;102055.44;;;-0.09;64.02
71643;BME280;59438;45.014;39.006;2022-12-07T00:14:54;102072.59;;;-0.11;63.86
71643;BME280;59438;45.014;39.006;2022-12-07T00:17:20;102068.22;;;-0.14;64.11
71643;BME280;59438;45.014;39.006;2022-12-07T00:19:47;102060.38;;;-0.17;63.65
71643;BME280;59438;45.014;39.006;2022-12-07T00:22:13;102040.56;;;-0.18;63.83
71643;BME280;59438;45.014;39.006;2022-12-07T00:24:40;102048.38;;;-0.15;64.06
71643;BME280;59438;45.014;39.006;2022-12-07T00:27:06;102041.25;;;-0.24;63.89
71643;BME280;59438;45.014;39.006;2022-12-07T00:29:34;102045.63;;;-0.21;64.27
71643;BME280;59438;45.014;39.006;2022-12-07T00:32:00;102058.59;;;-0.19;64.08
71643;BME280;59438;45.014;39.006;2022-12-07T00:34:26;102050.03;;;-0.18;63.99
71643;BME280;59438;45.014;39.006;2022-12-07T00:36:53;102051.75;;;-0.17;64.20
71643;BME280;59438;45.014;39.006;2022-12-07T00:39:19;102056.09;;;-0.16;64.24
71643;BME280;59438;45.014;39.006;2022-12-07T00:41:46;102051.88;;;-0.13;64.10
71643;BME280;59438;45.014;39.006;2022-12-07T00:44:12;102044.97;;;-0.14;64.22
71643;BME280;59438;45.014;39.006;2022-12-07T00:46:40;102044.19;;;-0.11;63.98
71643;BME280;59438;45.014;39.006;2022-12-07T00:49:06;102012.72;;;-0.28;63.73
71643;BME280;59438;45.014;39.006;2022-12-07T00:51:33;102037.19;;;-0.15;64.03
71643;BME280;59438;45.014;39.006;2022-12-07T00:53:59;102024.19;;;-0.18;64.10
71643;BME280;59438;45.014;39.006;2022-12-07T00:56:27;102029.09;;;-0.28;64.02
71643;BME280;59438;45.014;39.006;2022-12-07T00:58:55;102021.28;;;-0.29;63.96
71643;BME280;59438;45.014;39.006;2022-12-07T01:01:22;102022.09;;;-0.32;64.02
71643;BME280;59438;45.014;39.006;2022-12-07T01:03:50;102027.25;;;-0.32;64.57
71643;BME280;59438;45.014;39.006;2022-12-07T01:06:18;102021.84;;;-0.39;64.50
71643;BME280;59438;45.014;39.006;2022-12-07T01:08:44;102039.34;;;-0.31;64.45
71643;BME280;59438;45.014;39.006;2022-12-07T01:11:14;102041.06;;;-0.30;64.56
71643;BME280;59438;45.014;39.006;2022-12-07T01:13:40;102032.59;;;-0.26;64.34
71643;BME280;59438;45.014;39.006;2022-12-07T01:16:08;102025.81;;;-0.22;64.30
71643;BME280;59438;45.014;39.006;2022-12-07T01:18:36;102021.47;;;-0.23;64.31
71643;BME280;59438;45.014;39.006;2022-12-07T01:21:06;101982.22;;;-0.42;64.33
71643;BME280;59438;45.014;39.006;2022-12-07T01:23:34;102000.63;;;-0.31;64.33
71643;BME280;59438;45.014;39.006;2022-12-07T01:26:02;102008.44;;;-0.28;64.73
71643;BME280;59438;45.014;39.006;2022-12-07T01:28:29;102014.47;;;-0.27;64.35
71643;BME280;59438;45.014;39.006;2022-12-07T01:30:57;102018.75;;;-0.28;64.48
71643;BME280;59438;45.014;39.006;2022-12-07T01:33:24;102016.19;;;-0.28;64.51
71643;BME280;59438;45.014;39.006;2022-12-07T01:35:52;102007.56;;;-0.28;64.24
71643;BME280;59438;45.014;39.006;2022-12-07T01:38:20;102007.56;;;-0.28;64.51
71643;BME280;59438;45.014;39.006;2022-12-07T01:40:54;102003.25;;;-0.28;64.46
71643;BME280;59438;45.014;39.006;2022-12-07T01:43:20;102012.69;;;-0.30;64.37
71643;BME280;59438;45.014;39.006;2022-12-07T01:45:48;102003.09;;;-0.34;64.17
71643;BME280;59438;45.014;39.006;2022-12-07T01:48:16;102008.06;;;-0.40;64.43
71643;BME280;59438;45.014;39.006;2022-12-07T01:50:47;102020.94;;;-0.42;64.61
71643;BME280;59438;45.014;39.006;2022-12-07T01:53:15;102024.31;;;-0.44;64.54
71643;BME280;59438;45.014;39.006;2022-12-07T01:55:46;102011.22;;;-0.50;64.51
71643;BME280;59438;45.014;39.006;2022-12-07T01:58:16;102018.28;;;-0.45;64.50
71643;BME280;59438;45.014;39.006;2022-12-07T02:00:43;102017.34;;;-0.47;64.33
71643;BME280;59438;45.014;39.006;2022-12-07T02:03:13;102016.22;;;-0.56;64.47
71643;BME280;59438;45.014;39.006;2022-12-07T02:05:42;102016.31;;;-0.53;64.39
71643;BME280;59438;45.014;39.006;2022-12-07T02:08:09;102012.75;;;-0.57;64.43
71643;BME280;59438;45.014;39.006;2022-12-07T02:10:37;102014.38;;;-0.61;64.45
71643;BME280;59438;45.014;39.006;2022-12-07T02:13:08;102003.78;;;-0.70;64.60
71643;BME280;59438;45.014;39.006;2022-12-07T02:15:45;101982.06;;;-0.76;64.86
71643;BME280;59438;45.014;39.006;2022-12-07T02:18:17;102005.34;;;-0.75;64.28
71643;BME280;59438;45.014;39.006;2022-12-07T02:20:51;102009.81;;;-0.69;64.54
71643;BME280;59438;45.014;39.006;2022-12-07T02:23:40;102014.91;;;-0.71;64.55
71643;BME280;59438;45.014;39.006;2022-12-07T02:26:28;102022.72;;;-0.69;64.50
71643;BME280;59438;45.014;39.006;2022-12-07T02:29:16;102012.34;;;-0.71;64.67
71643;BME280;59438;45.014;39.006;2022-12-07T02:31:50;102023.44;;;-0.73;64.64
71643;BME280;59438;45.014;39.006;2022-12-07T02:34:26;102028.56;;;-0.75;64.16
71643;BME280;59438;45.014;39.006;2022-12-07T02:36:58;102024.25;;;-0.74;64.59
71643;BME280;59438;45.014;39.006;2022-12-07T02:39:32;102024.31;;;-0.73;64.62
71643;BME280;59438;45.014;39.006;2022-12-07T02:42:04;101991.19;;;-0.88;64.48
71643;BME280;59438;45.014;39.006;2022-12-07T02:44:37;102013.19;;;-0.72;64.58
71643;BME280;59438;45.014;39.006;2022-12-07T02:47:07;102012.88;;;-0.81;64.54
71643;BME280;59438;45.014;39.006;2022-12-07T02:49:36;102032.75;;;-0.78;64.57
71643;BME280;59438;45.014;39.006;2022-12-07T02:52:04;102021.31;;;-0.87;64.18
71643;BME280;59438;45.014;39.006;2022-12-07T02:54:30;102019.63;;;-0.86;64.37
71643;BME280;59438;45.014;39.006;2022-12-07T02:57:02;102004.69;;;-0.96;64.63
71643;BME280;59438;45.014;39.006;2022-12-07T02:59:46;102020.44;;;-0.87;64.63
71643;BME280;59438;45.014;39.006;2022-12-07T03:02:20;102011.69;;;-0.92;64.75
71643;BME280;59438;45.014;39.006;2022-12-07T03:04:55;101968.50;;;-1.27;64.32
71643;BME280;59438;45.014;39.006;2022-12-07T03:07:30;102014.91;;;-0.99;64.71
71643;BME280;59438;45.014;39.006;2022-12-07T03:10:03;102015.56;;;-1.05;64.79
71643;BME280;59438;45.014;39.006;2022-12-07T03:12:39;102010.28;;;-1.10;65.10
71643;BME280;59438;45.014;39.006;2022-12-07T03:15:15;102012.13;;;-1.06;64.71
71643;BME280;59438;45.014;39.006;2022-12-07T03:17:46;102001.53;;;-1.15;65.12
71643;BME280;59438;45.014;39.006;2022-12-07T03:20:18;102020.59;;;-1.10;64.80
71643;BME280;59438;45.014;39.006;2022-12-07T03:22:47;102017.19;;;-1.09;64.74
71643;BME280;59438;45.014;39.006;2022-12-07T03:25:16;102017.00;;;-1.15;64.74
71643;BME280;59438;45.014;39.006;2022-12-07T03:27:44;102010.06;;;-1.16;65.06
71643;BME280;59438;45.014;39.006;2022-12-07T03:30:17;102015.38;;;-1.11;64.61
71643;BME280;59438;45.014;39.006;2022-12-07T03:32:48;102009.28;;;-1.15;64.68
71643;BME280;59438;45.014;39.006;2022-12-07T03:35:19;101991.63;;;-1.28;64.94
71643;BME280;59438;45.014;39.006;2022-12-07T03:37:50;102015.28;;;-1.14;64.73
71643;BME280;59438;45.014;39.006;2022-12-07T03:40:22;102025.03;;;-1.06;64.43
71643;BME280;59438;45.014;39.006;2022-12-07T03:42:52;102021.47;;;-1.09;64.91
71643;BME280;59438;45.014;39.006;2022-12-07T03:45:25;101989.78;;;-1.32;64.74
71643;BME280;59438;45.014;39.006;2022-12-07T03:48:02;102024.03;;;-1.09;64.89
71643;BME280;59438;45.014;39.006;2022-12-07T03:50:31;102003.22;;;-1.15;64.71
71643;BME280;59438;45.014;39.006;2022-12-07T03:53:05;102023.22;;;-1.08;64.74
71643;BME280;59438;45.014;39.006;2022-12-07T03:55:37;102013.63;;;-1.12;64.31
71643;BME280;59438;45.014;39.006;2022-12-07T03:58:09;102023.03;;;-1.14;64.79
71643;BME280;59438;45.014;39.006;2022-12-07T04:00:38;102005.66;;;-1.20;65.00
71643;BME280;59438;45.014;39.006;2022-12-07T04:03:06;102024.63;;;-1.18;64.76
71643;BME280;59438;45.014;39.006;2022-12-07T04:05:32;102008.16;;;-1.23;65.02
71643;BME280;59438;45.014;39.006;2022-12-07T04:07:59;102009.81;;;-1.24;64.75
71643;BME280;59438;45.014;39.006;2022-12-07T04:10:25;102015.78;;;-1.26;64.91
71643;BME280;59438;45.014;39.006;2022-12-07T04:12:52;102033.94;;;-1.23;64.91
71643;BME280;59438;45.014;39.006;2022-12-07T04:15:18;101988.66;;;-1.40;64.92
71643;BME280;59438;45.014;39.006;2022-12-07T04:17:46;102024.53;;;-1.21;65.33
71643;BME280;59438;45.014;39.006;2022-12-07T04:20:13;102020.34;;;-1.17;64.94
71643;BME280;59438;45.014;39.006;2022-12-07T04:22:42;102016.94;;;-1.16;64.77
71643;BME280;59438;45.014;39.006;2022-12-07T04:25:09;102024.63;;;-1.18;64.93
71643;BME280;59438;45.014;39.006;2022-12-07T04:27:35;102034.16;;;-1.15;64.69
71643;BME280;59438;45.014;39.006;2022-12-07T04:30:02;102040.03;;;-1.19;64.86
71643;BME280;59438;45.014;39.006;2022-12-07T04:32:28;102032.22;;;-1.23;64.88
71643;BME280;59438;45.014;39.006;2022-12-07T04:34:56;102027.88;;;-1.24;64.98
71643;BME280;59438;45.014;39.006;2022-12-07T04:37:23;102020.13;;;-1.24;64.66
71643;BME280;59438;45.014;39.006;2022-12-07T04:39:50;102008.75;;;-1.30;65.18
71643;BME280;59438;45.014;39.006;2022-12-07T04:42:16;102014.03;;;-1.27;65.25
71643;BME280;59438;45.014;39.006;2022-12-07T04:44:43;101995.66;;;-1.38;64.89
71643;BME280;59438;45.014;39.006;2022-12-07T04:47:09;102027.13;;;-1.21;65.24
71643;BME280;59438;45.014;39.006;2022-12-07T04:49:35;102037.56;;;-1.16;65.33
71643;BME280;59438;45.014;39.006;2022-12-07T04:52:04;102028.13;;;-1.16;64.91
71643;BME280;59438;45.014;39.006;2022-12-07T04:54:30;102022.25;;;-1.12;64.92
71643;BME280;59438;45.014;39.006;2022-12-07T04:56:56;102024.03;;;-1.09;64.88
71643;BME280;59438;45.014;39.006;2022-12-07T04:59:23;102024.94;;;-1.09;64.70
71643;BME280;59438;45.014;39.006;2022-12-07T05:01:49;102030.09;;;-1.09;64.82
71643;BME280;59438;45.014;39.006;2022-12-07T05:04:16;102028.44;;;-1.07;64.92
71643;BME280;59438;45.014;39.006;2022-12-07T05:06:42;102031.97;;;-1.03;64.72
71643;BME280;59438;45.014;39.006;2022-12-07T05:09:10;102030.38;;;-0.99;65.23
71643;BME280;59438;45.014;39.006;2022-12-07T05:11:37;102011.34;;;-1.03;64.92
71643;BME280;59438;45.014;39.006;2022-12-07T05:14:04;102033.94;;;-0.96;65.49
71643;BME280;59438;45.014;39.006;2022-12-07T05:16:31;102031.59;;;-0.88;65.15
71643;BME280;59438;45.014;39.006;2022-12-07T05:18:58;102026.53;;;-0.85;65.02
71643;BME280;59438;45.014;39.006;2022-12-07T05:21:24;102001.38;;;-0.92;64.92
71643;BME280;59438;45.014;39.006;2022-12-07T05:23:51;102024.00;;;-0.84;65.26
71643;BME280;59438;45.014;39.006;2022-12-07T05:26:19;102017.22;;;-0.80;65.15
71643;BME280;59438;45.014;39.006;2022-12-07T05:28:49;102024.06;;;-0.81;64.97
71643;BME280;59438;45.014;39.006;2022-12-07T05:31:15;102017.97;;;-0.84;65.06
71643;BME280;59438;45.014;39.006;2022-12-07T05:33:42;102017.06;;;-0.85;64.93
71643;BME280;59438;45.014;39.006;2022-12-07T05:36:08;102017.00;;;-0.88;65.27
71643;BME280;59438;45.014;39.006;2022-12-07T05:38:34;102034.31;;;-0.84;65.10
71643;BME280;59438;45.014;39.006;2022-12-07T05:41:01;102038.69;;;-0.81;65.06
71643;BME280;59438;45.014;39.006;2022-12-07T05:43:30;102025.00;;;-0.78;65.08
71643;BME280;59438;45.014;39.006;2022-12-07T05:45:57;102027.69;;;-0.75;65.02
71643;BME280;59438;45.014;39.006;2022-12-07T05:48:24;102020.75;;;-0.78;64.92
71643;BME280;59438;45.014;39.006;2022-12-07T05:50:51;102014.66;;;-0.80;65.05
71643;BME280;59438;45.014;39.006;2022-12-07T05:53:18;102025.09;;;-0.75;65.14
71643;BME280;59438;45.014;39.006;2022-12-07T05:55:44;102031.44;;;-0.66;65.18
71643;BME280;59438;45.014;39.006;2022-12-07T05:58:11;101990.41;;;-0.85;64.99
71643;BME280;59438;45.014;39.006;2022-12-07T06:00:39;102023.75;;;-0.63;65.05
71643;BME280;59438;45.014;39.006;2022-12-07T06:03:05;102030.81;;;-0.57;65.00
71643;BME280;59438;45.014;39.006;2022-12-07T06:05:31;102017.91;;;-0.57;64.90
71643;BME280;59438;45.014;39.006;2022-12-07T06:07:58;102027.38;;;-0.57;65.01
71643;BME280;59438;45.014;39.006;2022-12-07T06:10:24;102044.59;;;-0.56;65.26
71643;BME280;59438;45.014;39.006;2022-12-07T06:12:50;102043.84;;;-0.52;65.04
71643;BME280;59438;45.014;39.006;2022-12-07T06:15:17;102046.50;;;-0.51;64.61
71643;BME280;59438;45.014;39.006;2022-12-07T06:17:45;102044.03;;;-0.46;65.08
71643;BME280;59438;45.014;39.006;2022-12-07T06:20:11;102035.47;;;-0.45;64.79
71643;BME280;59438;45.014;39.006;2022-12-07T06:22:37;102047.53;;;-0.44;64.97
71643;BME280;59438;45.014;39.006;2022-12-07T06:25:04;102056.25;;;-0.41;64.77
71643;BME280;59438;45.014;39.006;2022-12-07T06:27:31;102021.38;;;-0.56;64.69
71643;BME280;59438;45.014;39.006;2022-12-07T06:29:57;102044.09;;;-0.45;64.83
71643;BME280;59438;45.014;39.006;2022-12-07T06:32:24;102051.34;;;-0.33;64.95
71643;BME280;59438;45.014;39.006;2022-12-07T06:34:52;102048.00;;;-0.29;64.88
71643;BME280;59438;45.014;39.006;2022-12-07T06:37:18;102043.72;;;-0.28;64.80
71643;BME280;59438;45.014;39.006;2022-12-07T06:39:45;102013.38;;;-0.35;64.66
71643;BME280;59438;45.014;39.006;2022-12-07T06:42:11;102006.47;;;-0.36;64.83
71643;BME280;59438;45.014;39.006;2022-12-07T06:44:37;102051.59;;;-0.24;65.08
71643;BME280;59438;45.014;39.006;2022-12-07T06:47:04;102070.88;;;-0.12;64.90
71643;BME280;59438;45.014;39.006;2022-12-07T06:49:30;102073.69;;;-0.03;64.90
71643;BME280;59438;45.014;39.006;2022-12-07T06:51:58;102067.78;;;0.01;64.80
71643;BME280;59438;45.014;39.006;2022-12-07T06:54:25;102056.53;;;-0.01;64.55
71643;BME280;59438;45.014;39.006;2022-12-07T06:56:51;102051.25;;;-0.06;64.73
71643;BME280;59438;45.014;39.006;2022-12-07T06:59:18;102048.59;;;-0.07;65.01
71643;BME280;59438;45.014;39.006;2022-12-07T07:01:44;102047.63;;;-0.12;65.43
71643;BME280;59438;45.014;39.006;2022-12-07T07:04:11;102055.38;;;-0.12;65.72
71643;BME280;59438;45.014;39.006;2022-12-07T07:06:37;102055.44;;;-0.09;65.94
71643;BME280;59438;45.014;39.006;2022-12-07T07:09:05;102046.81;;;-0.10;65.98
71643;BME280;59438;45.014;39.006;2022-12-07T07:11:31;102033.06;;;-0.09;65.73
71643;BME280;59438;45.014;39.006;2022-12-07T07:13:58;102033.97;;;-0.07;65.58
71643;BME280;59438;45.014;39.006;2022-12-07T07:16:24;102033.97;;;-0.08;66.18
71643;BME280;59438;45.014;39.006;2022-12-07T07:18:51;102023.56;;;-0.10;66.01
71643;BME280;59438;45.014;39.006;2022-12-07T07:21:17;102020.06;;;-0.12;66.14
71643;BME280;59438;45.014;39.006;2022-12-07T07:23:43;101967.91;;;-0.30;66.18
71643;BME280;59438;45.014;39.006;2022-12-07T07:26:11;101997.66;;;-0.13;66.84
71643;BME280;59438;45.014;39.006;2022-12-07T07:28:38;101993.44;;;-0.09;66.61
71643;BME280;59438;45.014;39.006;2022-12-07T07:31:04;101981.06;;;-0.21;66.91
71643;BME280;59438;45.014;39.006;2022-12-07T07:33:31;101994.16;;;-0.15;67.26
71643;BME280;59438;45.014;39.006;2022-12-07T07:35:57;102003.16;;;-0.01;67.25
71643;BME280;59438;45.014;39.006;2022-12-07T07:38:24;101990.56;;;0.12;66.77
71643;BME280;59438;45.014;39.006;2022-12-07T07:40:50;101993.25;;;0.15;66.38
71643;BME280;59438;45.014;39.006;2022-12-07T07:43:18;101997.56;;;0.16;66.55
71643;BME280;59438;45.014;39.006;2022-12-07T07:45:44;102010.53;;;0.17;66.64
71643;BME280;59438;45.014;39.006;2022-12-07T07:48:11;102010.63;;;0.22;66.82
71643;BME280;59438;45.014;39.006;2022-12-07T07:50:37;102012.41;;;0.25;66.88
71643;BME280;59438;45.014;39.006;2022-12-07T07:53:03;102023.81;;;0.31;66.93
71643;BME280;59438;45.014;39.006;2022-12-07T07:55:30;101996.91;;;0.25;66.86
71643;BME280;59438;45.014;39.006;2022-12-07T07:57:56;102011.13;;;0.40;66.75
71643;BME280;59438;45.014;39.006;2022-12-07T08:00:24;101998.91;;;0.35;67.16
71643;BME280;59438;45.014;39.006;2022-12-07T08:02:51;102003.53;;;0.47;66.73
71643;BME280;59438;45.014;39.006;2022-12-07T08:05:17;102007.13;;;0.52;66.81
71643;BME280;59438;45.014;39.006;2022-12-07T08:07:44;101999.38;;;0.53;67.16
71643;BME280;59438;45.014;39.006;2022-12-07T08:10:12;101964.53;;;0.37;66.66
71643;BME280;59438;45.014;39.006;2022-12-07T08:12:39;101978.78;;;0.56;66.55
71643;BME280;59438;45.014;39.006;2022-12-07T08:15:07;101991.91;;;0.66;66.94
71643;BME280;59438;45.014;39.006;2022-12-07T08:17:35;101988.56;;;0.68;67.00
71643;BME280;59438;45.014;39.006;2022-12-07T08:20:01;101982.66;;;0.75;66.94
71643;BME280;59438;45.014;39.006;2022-12-07T08:22:28;101988.81;;;0.79;66.23
71643;BME280;59438;45.014;39.006;2022-12-07T08:24:54;101979.31;;;0.79;66.90
71643;BME280;59438;45.014;39.006;2022-12-07T08:27:20;101952.44;;;0.73;66.45
71643;BME280;59438;45.014;39.006;2022-12-07T08:29:47;101967.28;;;0.82;66.93
71643;BME280;59438;45.014;39.006;2022-12-07T08:32:13;101964.84;;;0.88;66.86
71643;BME280;59438;45.014;39.006;2022-12-07T08:34:41;101959.88;;;0.95;67.06
71643;BME280;59438;45.014;39.006;2022-12-07T08:37:07;101957.38;;;1.00;66.94
71643;BME280;59438;45.014;39.006;2022-12-07T08:39:34;101960.03;;;1.03;66.84
71643;BME280;59438;45.014;39.006;2022-12-07T08:42:00;101969.75;;;1.15;66.99
71643;BME280;59438;45.014;39.006;2022-12-07T08:44:27;101961.22;;;1.17;66.50
71643;BME280;59438;45.014;39.006;2022-12-07T08:46:56;101967.34;;;1.23;66.61
71643;BME280;59438;45.014;39.006;2022-12-07T08:49:27;101954.50;;;1.27;66.16
71643;BME280;59438;45.014;39.006;2022-12-07T08:51:58;101947.63;;;1.29;66.76
71643;BME280;59438;45.014;39.006;2022-12-07T08:54:24;101949.56;;;1.39;66.53
71643;BME280;59438;45.014;39.006;2022-12-07T08:56:51;101949.00;;;1.54;66.65
71643;BME280;59438;45.014;39.006;2022-12-07T08:59:19;101946.63;;;1.64;66.00
71643;BME280;59438;45.014;39.006;2022-12-07T09:01:46;101951.88;;;1.68;66.19
71643;BME280;59438;45.014;39.006;2022-12-07T09:04:13;101947.00;;;1.85;65.79
71643;BME280;59438;45.014;39.006;2022-12-07T09:06:40;101934.91;;;1.84;66.20
71643;BME280;59438;45.014;39.006;2022-12-07T09:09:09;101942.06;;;1.96;65.91
71643;BME280;59438;45.014;39.006;2022-12-07T09:11:36;101945.56;;;1.99;65.26
71643;BME280;59438;45.014;39.006;2022-12-07T09:14:02;101947.25;;;1.97;65.32
71643;BME280;59438;45.014;39.006;2022-12-07T09:16:29;101941.16;;;1.95;65.73
71643;BME280;59438;45.014;39.006;2022-12-07T09:18:55;101942.84;;;1.93;65.64
71643;BME280;59438;45.014;39.006;2022-12-07T09:21:22;101935.75;;;1.81;65.85
71643;BME280;59438;45.014;39.006;2022-12-07T09:23:48;101933.31;;;1.91;65.50
71643;BME280;59438;45.014;39.006;2022-12-07T09:26:16;101933.28;;;1.89;65.34
71643;BME280;59438;45.014;39.006;2022-12-07T09:28:42;101937.56;;;1.86;65.36
71643;BME280;59438;45.014;39.006;2022-12-07T09:31:09;101938.41;;;1.86;65.22
71643;BME280;59438;45.014;39.006;2022-12-07T09:33:35;101919.25;;;1.78;65.80
71643;BME280;59438;45.014;39.006;2022-12-07T09:36:03;101938.41;;;1.86;66.02
71643;BME280;59438;45.014;39.006;2022-12-07T09:38:30;101920.31;;;1.89;65.44
71643;BME280;59438;45.014;39.006;2022-12-07T09:40:57;101932.53;;;1.95;65.81
71643;BME280;59438;45.014;39.006;2022-12-07T09:43:25;101925.75;;;2.03;65.15
71643;BME280;59438;45.014;39.006;2022-12-07T09:45:53;101895.31;;;1.90;65.27
71643;BME280;59438;45.014;39.006;2022-12-07T09:48:30;101908.50;;;2.05;65.12
71643;BME280;59438;45.014;39.006;2022-12-07T09:50:59;101920.81;;;2.17;65.12
71643;BME280;59438;45.014;39.006;2022-12-07T09:53:29;101907.00;;;2.18;65.35
71643;BME280;59438;45.014;39.006;2022-12-07T09:55:56;101906.22;;;2.24;65.69
71643;BME280;59438;45.014;39.006;2022-12-07T09:58:26;101891.63;;;2.30;65.00
71643;BME280;59438;45.014;39.006;2022-12-07T10:00:56;101897.88;;;2.41;65.01
71643;BME280;59438;45.014;39.006;2022-12-07T10:03:23;101901.47;;;2.50;64.57
71643;BME280;59438;45.014;39.006;2022-12-07T10:05:52;101898.16;;;2.60;65.15
71643;BME280;59438;45.014;39.006;2022-12-07T10:08:19;101913.03;;;2.70;65.26
71643;BME280;59438;45.014;39.006;2022-12-07T10:10:48;101901.91;;;2.80;64.54
71643;BME280;59438;45.014;39.006;2022-12-07T10:13:19;101871.59;;;2.78;64.26
71643;BME280;59438;45.014;39.006;2022-12-07T10:15:49;101895.28;;;3.01;64.09
71643;BME280;59438;45.014;39.006;2022-12-07T10:18:28;101910.03;;;3.07;64.12
71643;BME280;59438;45.014;39.006;2022-12-07T10:21:10;101885.72;;;3.00;64.00
71643;BME280;59438;45.014;39.006;2022-12-07T10:23:39;101897.22;;;3.19;64.11
71643;BME280;59438;45.014;39.006;2022-12-07T10:26:27;101889.50;;;3.25;64.14
71643;BME280;59438;45.014;39.006;2022-12-07T10:28:55;101889.56;;;3.28;64.06
71643;BME280;59438;45.014;39.006;2022-12-07T10:31:26;101889.50;;;3.25;64.19
71643;BME280;59438;45.014;39.006;2022-12-07T10:33:54;101885.13;;;3.19;64.08
71643;BME280;59438;45.014;39.006;2022-12-07T10:36:23;101901.66;;;3.26;63.85
71643;BME280;59438;45.014;39.006;2022-12-07T10:38:51;101866.81;;;3.09;64.23
71643;BME280;59438;45.014;39.006;2022-12-07T10:41:18;101897.28;;;3.25;64.03
71643;BME280;59438;45.014;39.006;2022-12-07T10:43:50;101891.25;;;3.26;64.24
71643;BME280;59438;45.014;39.006;2022-12-07T10:46:45;101893.97;;;3.34;64.04
71643;BME280;59438;45.014;39.006;2022-12-07T10:52:29;101864.50;;;3.33;63.69
71643;BME280;59438;45.014;39.006;2022-12-07T10:55:10;101868.00;;;3.37;63.90
71643;BME280;59438;45.014;39.006;2022-12-07T10:57:51;101882.13;;;3.59;63.66
71643;BME280;59438;45.014;39.006;2022-12-07T11:00:23;101877.03;;;3.70;64.08
71643;BME280;59438;45.014;39.006;2022-12-07T11:05:56;101851.00;;;3.68;62.95
71643;BME280;59438;45.014;39.006;2022-12-07T11:08:38;101865.00;;;3.79;62.70
71643;BME280;59438;45.014;39.006;2022-12-07T11:11:12;101858.84;;;3.71;63.04
71643;BME280;59438;45.014;39.006;2022-12-07T11:13:46;101861.44;;;3.71;62.99
71643;BME280;59438;45.014;39.006;2022-12-07T11:16:21;101842.31;;;3.66;63.17
71643;BME280;59438;45.014;39.006;2022-12-07T11:18:59;101838.88;;;3.66;62.92
71643;BME280;59438;45.014;39.006;2022-12-07T11:21:38;101856.22;;;3.70;63.14
71643;BME280;59438;45.014;39.006;2022-12-07T11:24:12;101835.25;;;3.51;62.98
71643;BME280;59438;45.014;39.006;2022-12-07T11:26:57;101876.19;;;3.74;63.25
71643;BME280;59438;45.014;39.006;2022-12-07T11:29:43;101877.13;;;3.79;63.06
71643;BME280;59438;45.014;39.006;2022-12-07T11:32:17;101861.50;;;3.77;63.14
71643;BME280;59438;45.014;39.006;2022-12-07T11:34:55;101857.19;;;3.79;62.97
71643;BME280;59438;45.014;39.006;2022-12-07T11:37:30;101870.28;;;3.90;63.14
71643;BME280;59438;45.014;39.006;2022-12-07T11:40:01;101879.06;;;4.03;62.80
71643;BME280;59438;45.014;39.006;2022-12-07T11:42:33;101878.28;;;4.10;62.73
71643;BME280;59438;45.014;39.006;2022-12-07T11:45:12;101886.16;;;4.21;62.22
71643;BME280;59438;45.014;39.006;2022-12-07T11:47:46;101887.97;;;4.31;62.52
71643;BME280;59438;45.014;39.006;2022-12-07T11:50:25;101876.72;;;4.34;61.74
71643;BME280;59438;45.014;39.006;2022-12-07T11:52:58;101874.94;;;4.30;61.69
71643;BME280;59438;45.014;39.006;2022-12-07T11:55:31;101879.34;;;4.37;61.80
71643;BME280;59438;45.014;39.006;2022-12-07T11:58:03;101855.88;;;4.31;61.78
71643;BME280;59438;45.014;39.006;2022-12-07T12:00:31;101875.13;;;4.51;62.45
71643;BME280;59438;45.014;39.006;2022-12-07T12:03:23;101865.59;;;4.58;61.84
71643;BME280;59438;45.014;39.006;2022-12-07T12:05:57;101863.03;;;4.62;61.70
71643;BME280;59438;45.014;39.006;2022-12-07T12:08:29;101822.13;;;4.37;61.42
71643;BME280;59438;45.014;39.006;2022-12-07T12:11:01;101843.88;;;4.50;61.76
71643;BME280;59438;45.014;39.006;2022-12-07T12:16:56;101871.75;;;4.71;61.34
71643;BME280;59438;45.014;39.006;2022-12-07T12:19:32;101865.66;;;4.66;61.56
71643;BME280;59438;45.014;39.006;2022-12-07T12:22:06;101856.94;;;4.57;61.70
71643;BME280;59438;45.014;39.006;2022-12-07T12:24:39;101876.97;;;4.68;61.65
71643;BME280;59438;45.014;39.006;2022-12-07T12:27:09;101858.69;;;4.61;61.36
71643;BME280;59438;45.014;39.006;2022-12-07T12:29:38;101874.34;;;4.68;61.17
71643;BME280;59438;45.014;39.006;2022-12-07T12:32:11;101871.72;;;4.66;61.18
71643;BME280;59438;45.014;39.006;2022-12-07T12:34:41;101874.34;;;4.66;61.76
71643;BME280;59438;45.014;39.006;2022-12-07T12:37:42;101876.06;;;4.66;60.99
71643;BME280;59438;45.014;39.006;2022-12-07T12:46:47;101872.56;;;4.62;62.07
71643;BME280;59438;45.014;39.006;2022-12-07T12:49:37;101870.81;;;4.58;62.06
71643;BME280;59438;45.014;39.006;2022-12-07T12:55:15;101868.97;;;4.44;62.11
71643;BME280;59438;45.014;39.006;2022-12-07T12:57:42;101875.06;;;4.47;62.10
71643;BME280;59438;45.014;39.006;2022-12-07T13:00:17;101852.44;;;4.35;61.88
71643;BME280;59438;45.014;39.006;2022-12-07T13:02:49;101866.31;;;4.34;62.18
71643;BME280;59438;45.014;39.006;2022-12-07T13:05:19;101868.94;;;4.38;61.84
71643;BME280;59438;45.014;39.006;2022-12-07T13:08:00;101870.69;;;4.39;62.45
71643;BME280;59438;45.014;39.006;2022-12-07T13:10:43;101873.31;;;4.41;62.15
71643;BME280;59438;45.014;39.006;2022-12-07T13:13:32;101866.31;;;4.38;62.29